createdAt,value
2022-08-24T00:03:12.138Z,21.19
2022-08-24T00:08:34.942Z,21.15
2022-08-24T00:13:57.124Z,20.91
2022-08-24T00:19:18.888Z,21.01
2022-08-24T00:24:40.648Z,21.03
2022-08-24T00:30:05.780Z,20.93
2022-08-24T00:35:28.038Z,20.66
2022-08-24T00:40:50.447Z,20.61
2022-08-24T00:46:42.231Z,20.63
2022-08-24T00:52:24.737Z,20.47
2022-08-24T00:57:51.221Z,20.51
2022-08-24T01:03:13.577Z,20.40
2022-08-24T01:08:35.746Z,20.36
2022-08-24T01:13:57.794Z,20.20
2022-08-24T01:19:29.068Z,20.28
2022-08-24T01:24:50.941Z,20.34
2022-08-24T01:30:35.981Z,19.95
2022-08-24T01:36:05.791Z,19.83
2022-08-24T01:41:29.183Z,19.92
2022-08-24T01:46:53.713Z,19.68
2022-08-24T01:52:19.519Z,19.64
2022-08-24T01:57:41.304Z,19.46
2022-08-24T02:03:04.465Z,19.70
2022-08-24T02:08:26.343Z,19.50
2022-08-24T02:13:48.101Z,19.77
2022-08-24T02:19:10.150Z,19.63
2022-08-24T02:24:32.766Z,19.55
2022-08-24T02:29:54.511Z,19.41
2022-08-24T02:35:17.257Z,19.11
2022-08-24T02:40:39.139Z,19.24
2022-08-24T02:46:00.939Z,18.96
2022-08-24T02:51:31.010Z,18.99
2022-08-24T02:57:03.517Z,19.16
2022-08-24T03:02:25.403Z,19.12
2022-08-24T03:07:47.401Z,19.16
2022-08-24T03:13:09.987Z,19.10
2022-08-24T03:18:32.175Z,19.12
2022-08-24T03:23:54.092Z,19.16
2022-08-24T03:29:16.122Z,19.03
2022-08-24T03:34:37.991Z,18.81
2022-08-24T03:40:00.095Z,18.65
2022-08-24T03:45:22.883Z,18.60
2022-08-24T03:50:46.157Z,18.55
2022-08-24T03:56:09.018Z,18.74
2022-08-24T04:01:31.253Z,18.79
2022-08-24T04:06:53.163Z,18.52
2022-08-24T04:12:14.910Z,18.41
2022-08-24T04:17:36.686Z,18.27
2022-08-24T04:22:58.527Z,18.33
2022-08-24T04:28:21.269Z,18.26
2022-08-24T04:33:43.082Z,18.32
2022-08-24T04:39:06.015Z,18.33
2022-08-24T04:44:27.801Z,18.70
2022-08-24T04:49:53.537Z,18.29
2022-08-24T04:55:15.565Z,18.40
2022-08-24T05:00:37.366Z,18.67
2022-08-24T05:05:59.123Z,18.53
2022-08-24T05:11:22.263Z,18.33
2022-08-24T05:16:44.002Z,18.41
2022-08-24T05:22:14.639Z,18.56
2022-08-24T05:27:36.502Z,18.72
2022-08-24T05:32:58.371Z,18.71
2022-08-24T05:38:20.184Z,18.85
2022-08-24T05:43:42.283Z,18.86
2022-08-24T05:49:05.022Z,18.92
2022-08-24T05:54:27.015Z,18.88
2022-08-24T05:59:49.580Z,18.98
2022-08-24T06:05:11.565Z,19.06
2022-08-24T06:10:40.313Z,19.10
2022-08-24T06:16:20.775Z,19.16
2022-08-24T06:21:46.754Z,19.32
2022-08-24T06:27:23.516Z,19.43
2022-08-24T06:32:45.390Z,19.43
2022-08-24T06:38:07.138Z,19.42
2022-08-24T06:43:29.410Z,19.56
2022-08-24T06:48:51.382Z,19.74
2022-08-24T06:54:13.148Z,19.77
2022-08-24T06:59:34.993Z,19.81
2022-08-24T07:04:56.773Z,19.91
2022-08-24T07:10:18.529Z,20.07
2022-08-24T07:15:44.958Z,20.14
2022-08-24T07:21:06.915Z,20.29
2022-08-24T07:26:31.420Z,20.66
2022-08-24T07:31:53.322Z,21.41
2022-08-24T07:37:15.373Z,21.24
2022-08-24T07:42:37.193Z,21.24
2022-08-24T07:53:32.536Z,21.23
2022-08-24T07:59:07.698Z,21.30
2022-08-24T08:04:32.793Z,21.36
2022-08-24T08:09:54.544Z,21.48
2022-08-24T08:15:16.379Z,21.56
2022-08-24T08:20:40.676Z,21.67
2022-08-24T08:26:02.922Z,21.78
2022-08-24T08:31:26.029Z,21.80
2022-08-24T08:36:49.514Z,21.83
2022-08-24T08:42:30.116Z,21.89
2022-08-24T08:48:40.897Z,21.97
2022-08-24T08:54:13.144Z,22.08
2022-08-24T08:59:40.825Z,22.23
2022-08-24T09:05:43.072Z,22.33
2022-08-24T09:11:23.695Z,22.36
2022-08-24T09:17:13.430Z,22.42
2022-08-24T09:22:40.667Z,22.51
2022-08-24T09:28:31.465Z,22.73
2022-08-24T09:34:33.573Z,22.88
2022-08-24T09:40:24.709Z,23.00
2022-08-24T09:46:13.905Z,23.18
2022-08-24T09:52:18.528Z,23.42
2022-08-24T09:58:01.490Z,23.51
2022-08-24T10:03:46.734Z,23.64
2022-08-24T10:09:19.272Z,23.79
2022-08-24T10:15:06.387Z,23.90
2022-08-24T10:21:04.050Z,24.09
2022-08-24T10:26:44.108Z,24.24
2022-08-24T10:32:29.217Z,24.29
2022-08-24T10:38:41.520Z,24.26
2022-08-24T10:44:47.673Z,24.38
2022-08-24T10:50:31.360Z,24.39
2022-08-24T10:56:05.631Z,24.48
2022-08-24T11:01:29.836Z,24.60
2022-08-24T11:07:18.097Z,24.77
2022-08-24T11:12:45.326Z,24.76
2022-08-24T11:18:07.089Z,24.99
2022-08-24T11:23:36.557Z,25.23
2022-08-24T11:29:04.453Z,25.15
2022-08-24T11:34:39.529Z,25.19
2022-08-24T11:40:02.360Z,25.41
2022-08-24T11:45:30.081Z,25.60
2022-08-24T11:51:04.974Z,25.85
2022-08-24T11:57:10.934Z,26.03
2022-08-24T12:02:41.848Z,26.23
2022-08-24T12:08:19.455Z,26.44
2022-08-24T12:14:02.622Z,26.63
2022-08-24T12:19:30.856Z,26.65
2022-08-24T12:24:57.240Z,26.97
2022-08-24T12:30:19.244Z,26.93
2022-08-24T12:35:52.470Z,26.91
2022-08-24T12:41:32.096Z,26.87
2022-08-24T12:46:54.568Z,26.92
2022-08-24T12:52:37.461Z,26.89
2022-08-24T13:04:05.626Z,26.67
2022-08-24T13:09:56.279Z,26.89
2022-08-24T13:15:28.541Z,26.89
2022-08-24T13:20:50.364Z,26.82
2022-08-24T13:26:26.964Z,26.89
2022-08-24T13:31:53.996Z,26.99
2022-08-24T13:37:24.941Z,27.21
2022-08-24T13:43:17.653Z,27.10
2022-08-24T13:48:39.356Z,27.13
2022-08-24T13:54:19.964Z,27.17
2022-08-24T14:00:19.447Z,27.23
2022-08-24T14:06:21.537Z,27.22
2022-08-24T14:11:58.495Z,27.26
2022-08-24T14:17:55.086Z,27.33
2022-08-24T14:23:39.319Z,27.37
2022-08-24T14:29:19.241Z,27.45
2022-08-24T14:35:04.049Z,27.30
2022-08-24T14:40:43.776Z,27.44
2022-08-24T14:46:18.848Z,27.39
2022-08-24T14:52:00.859Z,27.33
2022-08-24T14:58:04.674Z,27.32
2022-08-24T15:04:10.941Z,27.23
2022-08-24T15:09:38.662Z,27.26
2022-08-24T15:15:21.321Z,27.15
2022-08-24T15:21:10.956Z,27.03
2022-08-24T15:27:11.764Z,26.90
2022-08-24T15:32:51.687Z,26.98
2022-08-24T15:38:31.742Z,27.03
2022-08-24T15:43:56.415Z,26.98
2022-08-24T15:49:23.818Z,27.00
2022-08-24T15:54:58.201Z,27.06
2022-08-24T16:00:44.748Z,27.01
2022-08-24T16:06:23.525Z,26.92
2022-08-24T16:12:05.018Z,26.90
2022-08-24T16:17:30.216Z,26.84
2022-08-24T16:23:00.740Z,26.75
2022-08-24T16:28:22.742Z,26.74
2022-08-24T16:33:47.232Z,26.67
2022-08-24T16:39:11.218Z,26.67
2022-08-24T16:44:38.973Z,26.63
2022-08-24T16:50:00.710Z,26.55
2022-08-24T16:55:22.931Z,26.53
2022-08-24T17:00:45.994Z,26.54
2022-08-24T17:06:12.216Z,26.45
2022-08-24T17:11:34.674Z,26.38
2022-08-24T17:16:58.447Z,26.33
2022-08-24T17:22:22.820Z,26.25
2022-08-24T17:27:45.092Z,26.22
2022-08-24T17:33:06.932Z,26.12
2022-08-24T17:38:30.320Z,26.08
2022-08-24T17:43:52.999Z,26.01
2022-08-24T17:49:14.764Z,25.92
2022-08-24T17:54:36.514Z,25.88
2022-08-24T17:59:58.348Z,25.83
2022-08-24T18:05:21.823Z,25.79
2022-08-24T18:10:43.634Z,25.71
2022-08-24T18:16:19.256Z,25.64
2022-08-24T18:21:42.512Z,25.59
2022-08-24T18:27:11.230Z,25.54
2022-08-24T18:32:36.404Z,25.46
2022-08-24T18:38:01.459Z,25.41
2022-08-24T18:43:24.086Z,25.36
2022-08-24T18:48:45.985Z,25.27
2022-08-24T18:54:14.176Z,25.20
2022-08-24T18:59:39.290Z,25.15
2022-08-24T19:05:10.726Z,25.08
2022-08-24T19:10:36.423Z,25.02
2022-08-24T19:15:58.225Z,24.95
2022-08-24T19:21:20.505Z,24.86
2022-08-24T19:26:42.670Z,24.76
2022-08-24T19:32:06.283Z,24.70
2022-08-24T19:37:31.938Z,24.64
2022-08-24T19:42:54.524Z,24.56
2022-08-24T19:48:17.188Z,24.51
2022-08-24T19:53:39.879Z,24.48
2022-08-24T19:59:07.282Z,24.42
2022-08-24T20:04:29.105Z,24.46
2022-08-24T20:09:50.886Z,24.46
2022-08-24T20:15:13.059Z,24.46
2022-08-24T20:20:35.065Z,24.39
2022-08-24T20:25:59.087Z,24.24
2022-08-24T20:31:28.226Z,24.19
2022-08-24T20:36:50.895Z,24.21
2022-08-24T20:42:17.368Z,24.12
2022-08-24T20:47:47.336Z,24.02
2022-08-24T20:53:11.244Z,23.91
2022-08-24T20:58:33.027Z,23.95
2022-08-24T21:03:54.866Z,23.93
2022-08-24T21:09:16.635Z,23.89
2022-08-24T21:14:38.406Z,23.89
2022-08-24T21:20:00.471Z,23.93
2022-08-24T21:25:22.236Z,23.91
2022-08-24T21:30:44.044Z,23.91
2022-08-24T21:36:06.071Z,23.83
2022-08-24T21:41:29.414Z,23.69
2022-08-24T21:46:51.927Z,23.65
2022-08-24T21:52:13.756Z,23.58
2022-08-24T21:57:35.559Z,23.42
2022-08-24T22:02:57.344Z,23.33
2022-08-24T22:08:19.121Z,23.18
2022-08-24T22:13:41.698Z,23.19
2022-08-24T22:19:04.129Z,23.12
2022-08-24T22:24:26.111Z,23.10
2022-08-24T22:29:52.377Z,23.09
2022-08-24T22:35:14.624Z,22.88
2022-08-24T22:40:36.683Z,22.81
2022-08-24T22:45:58.459Z,22.80
2022-08-24T22:51:21.449Z,22.80
2022-08-24T22:56:47.040Z,22.78
2022-08-24T23:02:12.241Z,22.82
2022-08-24T23:07:35.362Z,22.87
2022-08-24T23:12:57.157Z,22.83
2022-08-24T23:18:37.417Z,22.65
2022-08-24T23:23:59.417Z,22.55
2022-08-24T23:29:21.799Z,22.47
2022-08-24T23:34:43.828Z,22.43
2022-08-24T23:40:06.118Z,22.42
2022-08-24T23:45:28.375Z,22.36
2022-08-24T23:50:52.281Z,22.24
2022-08-24T23:56:21.022Z,22.20
